Time;durP1;ratioP1;P1;durP2;ratioP2;P2;SDS_P1;SDS_P2;PMS_P1;PMS_P2;Temp;Humidity;BMP_temperature;BMP_pressure;BME280_temperature;BME280_humidity;BME280_pressure;Samples;Min_cycle;Max_cycle;Signal;HPM_P1;HPM_P2
2023/06/10 00:00:06;;;;;;;11.05;5.90;;;;;;;23.36;50.11;101291.28;5033550;28;20100;-67
2023/06/10 00:02:40;;;;;;;9.18;5.70;;;;;;;23.29;50.02;101291.03;5033569;28;20068;-65
2023/06/10 00:05:08;;;;;;;9.63;5.45;;;;;;;23.28;50.24;101289.41;5034603;28;20390;-65
2023/06/10 00:07:37;;;;;;;9.00;5.60;;;;;;;23.28;50.40;101286.63;5024827;28;20052;-64
2023/06/10 00:10:07;;;;;;;15.00;6.18;;;;;;;23.26;50.28;101288.09;5014271;28;20081;-64
2023/06/10 00:12:36;;;;;;;12.65;5.28;;;;;;;23.24;50.50;101296.81;5018743;28;20406;-65
2023/06/10 00:15:05;;;;;;;11.02;5.28;;;;;;;23.25;50.45;101290.09;5014852;28;20075;-65
2023/06/10 00:17:34;;;;;;;9.32;5.57;;;;;;;23.26;50.72;101288.09;5021817;28;20462;-65
2023/06/10 00:20:04;;;;;;;10.18;5.90;;;;;;;23.23;50.69;101294.38;5031589;28;20056;-65
2023/06/10 00:22:32;;;;;;;8.60;5.45;;;;;;;23.14;51.04;101292.50;5027626;28;20051;-66
2023/06/10 00:25:00;;;;;;;11.50;6.18;;;;;;;23.06;51.29;101295.34;5032210;28;20494;-65
2023/06/10 00:27:31;;;;;;;10.13;5.85;;;;;;;22.97;51.66;101296.22;5034506;28;20085;-64
2023/06/10 00:30:04;;;;;;;9.50;5.78;;;;;;;22.98;51.77;101294.28;5034006;28;20057;-64
2023/06/10 00:32:31;;;;;;;9.95;5.30;;;;;;;23.00;51.82;101286.41;5030324;28;20041;-64
2023/06/10 00:34:59;;;;;;;13.90;6.47;;;;;;;22.97;51.98;101296.22;5050095;28;20048;-64
2023/06/10 00:37:28;;;;;;;11.73;5.40;;;;;;;22.94;52.13;101294.09;5032163;28;20452;-65
2023/06/10 00:39:56;;;;;;;8.50;5.43;;;;;;;22.91;52.25;101299.53;5016926;28;20132;-65
2023/06/10 00:42:25;;;;;;;9.68;5.63;;;;;;;22.87;52.67;101299.41;5000107;28;20057;-65
2023/06/10 00:44:57;;;;;;;8.85;5.70;;;;;;;22.85;52.81;101301.72;5025909;28;20049;-65
2023/06/10 00:47:26;;;;;;;8.73;5.43;;;;;;;22.85;52.74;101303.66;5033062;28;20056;-65
2023/06/10 00:49:54;;;;;;;9.77;5.93;;;;;;;22.85;52.89;101306.44;5032999;28;20184;-65
2023/06/10 00:52:27;;;;;;;9.20;5.47;;;;;;;22.79;53.11;101307.81;5003030;28;20104;-64
2023/06/10 00:54:55;;;;;;;10.40;6.03;;;;;;;22.72;53.49;101305.56;5013380;28;20058;-65
2023/06/10 00:57:22;;;;;;;10.80;5.60;;;;;;;22.69;53.70;101301.50;5017704;28;20076;-65
2023/06/10 00:59:50;;;;;;;9.40;5.40;;;;;;;22.71;53.66;101306.75;5012279;28;20449;-66
2023/06/10 01:02:18;;;;;;;10.57;5.47;;;;;;;22.68;53.98;101301.84;5044016;28;20060;-65
2023/06/10 01:04:48;;;;;;;9.68;6.05;;;;;;;22.70;54.08;101299.53;5012540;28;20393;-65
2023/06/10 01:07:47;;;;;;;11.18;5.72;;;;;;;22.69;54.15;101307.06;5012588;28;20130;-66
2023/06/10 01:10:30;;;;;;;8.80;5.95;;;;;;;22.67;54.40;101303.00;5023677;28;20108;-66
2023/06/10 01:13:03;;;;;;;10.85;5.63;;;;;;;22.64;54.55;101304.50;5013056;28;20478;-66
2023/06/10 01:15:34;;;;;;;8.02;5.60;;;;;;;22.64;54.75;101303.69;5013512;28;20046;-65
2023/06/10 01:18:08;;;;;;;8.55;5.43;;;;;;;22.57;54.92;101307.00;4997576;28;20071;-65
2023/06/10 01:20:40;;;;;;;9.98;5.40;;;;;;;22.51;55.12;101311.94;5022165;28;20046;-64
2023/06/10 01:23:09;;;;;;;9.77;5.60;;;;;;;22.50;55.42;101301.16;5018596;28;20564;-65
2023/06/10 01:25:56;;;;;;;8.73;5.55;;;;;;;22.49;55.50;101305.91;5033399;28;20129;-65
2023/06/10 01:28:31;;;;;;;10.32;5.72;;;;;;;22.44;55.85;101308.91;5019069;28;20081;-65
2023/06/10 01:31:11;;;;;;;10.77;6.13;;;;;;;22.45;56.12;101313.28;5035892;28;20073;-66
2023/06/10 01:33:43;;;;;;;10.45;5.70;;;;;;;22.44;56.27;101308.91;5027768;28;20107;-65
2023/06/10 01:36:12;;;;;;;11.93;6.10;;;;;;;22.43;56.39;101303.66;5021598;28;20050;-65
2023/06/10 01:38:50;;;;;;;10.63;5.90;;;;;;;22.42;56.60;101304.84;5030991;28;20125;-64
2023/06/10 01:41:18;;;;;;;10.75;5.97;;;;;;;22.33;57.21;101307.66;5033926;28;20489;-65
2023/06/10 01:43:46;;;;;;;10.32;5.72;;;;;;;22.25;57.37;101308.53;5022507;28;20080;-65
2023/06/10 01:46:15;;;;;;;11.05;6.03;;;;;;;22.21;57.61;101305.59;5017926;28;20049;-65
2023/06/10 01:48:43;;;;;;;9.93;5.93;;;;;;;22.19;57.82;101310.63;5033904;28;20052;-64
2023/06/10 01:51:11;;;;;;;11.35;5.78;;;;;;;22.17;58.13;101309.34;5029314;28;20108;-65
2023/06/10 01:53:38;;;;;;;8.50;5.80;;;;;;;22.18;58.08;101305.44;5034026;28;20080;-65
2023/06/10 01:56:06;;;;;;;8.95;5.72;;;;;;;22.15;58.17;101306.91;5042192;28;20112;-65
2023/06/10 01:58:34;;;;;;;8.55;5.90;;;;;;;22.12;58.20;101305.59;5032440;28;20454;-66
2023/06/10 02:01:01;;;;;;;9.02;6.25;;;;;;;22.13;58.31;101304.47;5051766;28;20059;-66
2023/06/10 02:03:29;;;;;;;8.27;6.05;;;;;;;22.14;58.39;101305.28;5028011;28;20049;-65
2023/06/10 02:05:57;;;;;;;11.98;6.47;;;;;;;22.10;58.62;101305.16;5017307;28;20100;-65
2023/06/10 02:08:27;;;;;;;12.25;6.95;;;;;;;22.08;58.80;101313.00;5027497;28;20045;-65
2023/06/10 02:10:55;;;;;;;9.88;6.20;;;;;;;22.04;58.84;101312.03;5036596;28;20072;-66
2023/06/10 02:13:22;;;;;;;12.60;6.43;;;;;;;22.00;59.26;101308.28;5035770;28;20095;-65
2023/06/10 02:15:54;;;;;;;9.85;6.20;;;;;;;21.98;59.38;101305.03;5033845;28;20049;-66
2023/06/10 02:18:22;;;;;;;10.88;6.70;;;;;;;21.99;59.41;101309.44;5036284;28;20045;-65
2023/06/10 02:20:49;;;;;;;11.02;6.45;;;;;;;21.97;59.58;101314.50;5035390;28;20092;-63
2023/06/10 02:23:17;;;;;;;12.30;6.88;;;;;;;21.97;59.56;101317.28;5018914;28;20441;-65
2023/06/10 02:25:45;;;;;;;13.55;6.90;;;;;;;21.92;59.81;101314.69;5035052;28;20045;-65
2023/06/10 02:28:12;;;;;;;13.70;6.47;;;;;;;21.86;60.12;101321.56;5033423;28;20409;-64
2023/06/10 02:30:41;;;;;;;11.70;7.50;;;;;;;21.81;60.34;101316.19;5051264;28;20049;-64
2023/06/10 02:33:12;;;;;;;12.20;6.80;;;;;;;21.76;60.75;101321.94;5016818;28;20052;-65
2023/06/10 02:35:41;;;;;;;12.32;7.28;;;;;;;21.72;61.10;101319.03;5052094;28;20045;-65
2023/06/10 02:38:09;;;;;;;9.93;7.30;;;;;;;21.72;61.12;101321.78;5034684;28;20064;-65
2023/06/10 02:40:37;;;;;;;12.68;7.30;;;;;;;21.69;61.17;101323.28;5027898;28;20041;-64
2023/06/10 02:43:05;;;;;;;13.23;7.03;;;;;;;21.67;61.37;101325.56;5035225;28;20049;-65
2023/06/10 02:45:33;;;;;;;10.80;6.93;;;;;;;21.65;61.48;101322.31;5034293;28;20061;-65
2023/06/10 02:48:03;;;;;;;12.90;7.22;;;;;;;21.64;61.47;101326.19;5042512;28;20124;-65
2023/06/10 02:50:32;;;;;;;11.18;6.97;;;;;;;21.65;61.54;101321.50;5028069;28;20057;-64
2023/06/10 02:53:08;;;;;;;10.50;6.13;;;;;;;21.65;61.56;101322.31;5052166;28;20045;-65
2023/06/10 02:55:39;;;;;;;12.32;7.30;;;;;;;21.62;61.62;101328.53;5051562;28;20120;-64
2023/06/10 02:58:10;;;;;;;11.52;7.20;;;;;;;21.54;61.93;101321.03;5043698;28;20458;-64
2023/06/10 03:00:40;;;;;;;12.85;7.85;;;;;;;21.53;62.08;101324.13;5006800;28;20104;-65
2023/06/10 03:03:10;;;;;;;11.32;7.00;;;;;;;21.49;62.17;101327.56;5029289;28;20051;-64
2023/06/10 03:05:46;;;;;;;15.10;7.13;;;;;;;21.49;62.31;101326.75;5034742;28;20132;-65
2023/06/10 03:08:16;;;;;;;12.07;7.15;;;;;;;21.48;62.11;101325.13;5025754;28;20054;-65
2023/06/10 03:10:45;;;;;;;10.98;6.70;;;;;;;21.45;62.27;101329.38;5045277;28;20046;-65
2023/06/10 03:13:17;;;;;;;10.95;6.82;;;;;;;21.45;62.06;101317.44;5017044;28;20049;-64
2023/06/10 03:15:45;;;;;;;10.25;6.78;;;;;;;21.43;62.07;101325.28;5039682;28;20046;-65
2023/06/10 03:18:17;;;;;;;10.95;7.05;;;;;;;21.39;62.31;101325.13;5015050;28;20049;-65
2023/06/10 03:20:46;;;;;;;9.57;6.45;;;;;;;21.31;62.40;101322.34;5021485;28;20045;-62
2023/06/10 03:23:15;;;;;;;12.05;7.13;;;;;;;21.26;62.58;101326.94;5050711;28;20064;-63
2023/06/10 03:25:43;;;;;;;11.60;6.70;;;;;;;21.27;62.53;101325.78;5049008;28;20060;-63
2023/06/10 03:28:15;;;;;;;12.52;7.13;;;;;;;21.24;62.44;101326.44;5049147;28;20069;-64
2023/06/10 03:30:43;;;;;;;11.00;6.85;;;;;;;21.21;62.35;101334.59;5038809;28;20107;-64
2023/06/10 03:33:11;;;;;;;11.25;6.60;;;;;;;21.24;62.36;101337.53;5018528;28;20068;-65
2023/06/10 03:35:40;;;;;;;10.82;7.03;;;;;;;21.31;62.04;101327.88;5048396;28;20079;-65
2023/06/10 03:38:07;;;;;;;10.75;7.13;;;;;;;21.31;61.75;101345.34;5027467;28;20077;-66
2023/06/10 03:40:35;;;;;;;11.63;6.93;;;;;;;21.28;61.62;101340.44;5031426;28;20077;-66
2023/06/10 03:43:04;;;;;;;12.10;6.22;;;;;;;21.23;61.77;101338.66;5001451;28;20049;-65
2023/06/10 03:45:32;;;;;;;12.32;7.05;;;;;;;21.18;61.99;101347.13;5018889;28;20085;-65
2023/06/10 03:48:01;;;;;;;11.32;6.68;;;;;;;21.20;61.80;101344.84;5022208;28;20486;-65
2023/06/10 03:50:37;;;;;;;11.18;6.68;;;;;;;21.21;61.40;101349.28;5047000;28;20045;-65
2023/06/10 03:53:05;;;;;;;10.93;6.80;;;;;;;21.20;61.34;101353.19;5034762;28;20409;-65
2023/06/10 03:55:33;;;;;;;12.70;6.85;;;;;;;21.17;61.48;101353.84;5032983;28;20060;-65
2023/06/10 03:58:01;;;;;;;11.02;6.60;;;;;;;21.16;61.26;101346.66;5017170;28;20053;-65
2023/06/10 04:00:29;;;;;;;11.95;7.40;;;;;;;21.14;61.29;101345.34;5034052;28;20398;-66
2023/06/10 04:02:57;;;;;;;11.75;7.07;;;;;;;21.14;61.14;101345.34;5025700;28;20406;-66
2023/06/10 04:05:34;;;;;;;14.30;7.07;;;;;;;21.13;60.89;101355.63;5013120;28;20038;-66
2023/06/10 04:08:02;;;;;;;10.40;6.15;;;;;;;21.10;61.23;101352.69;5019153;28;20064;-65
2023/06/10 04:10:30;;;;;;;11.85;6.70;;;;;;;21.04;61.08;101347.31;5034395;28;20521;-65
2023/06/10 04:12:58;;;;;;;14.15;7.30;;;;;;;21.02;61.27;101351.53;5035159;28;20045;-65
2023/06/10 04:15:32;;;;;;;11.55;6.68;;;;;;;20.98;61.56;101350.59;5026788;28;20100;-65
2023/06/10 04:18:05;;;;;;;12.70;6.57;;;;;;;20.98;61.54;101354.16;5022433;28;20064;-65
2023/06/10 04:20:35;;;;;;;12.77;6.65;;;;;;;20.95;61.44;101354.81;5031108;28;20045;-65
2023/06/10 04:23:03;;;;;;;10.65;6.70;;;;;;;20.94;61.65;101355.13;5042832;28;20444;-65
2023/06/10 04:25:32;;;;;;;11.43;7.18;;;;;;;20.92;61.92;101361.00;5032958;28;20071;-64
2023/06/10 04:27:59;;;;;;;13.82;7.90;;;;;;;20.92;61.85;101360.19;5025284;28;20061;-67
2023/06/10 04:30:27;;;;;;;10.85;7.65;;;;;;;20.85;61.94;101361.50;5028899;28;20046;-66
2023/06/10 04:32:56;;;;;;;9.63;6.68;;;;;;;20.83;62.15;101369.31;5040016;28;20042;-66
2023/06/10 04:35:26;;;;;;;14.63;7.97;;;;;;;20.88;62.09;101367.50;5045791;28;20049;-66
2023/06/10 04:37:55;;;;;;;11.23;7.05;;;;;;;20.86;62.14;101367.84;5028498;28;20049;-67
2023/06/10 04:40:24;;;;;;;11.68;7.38;;;;;;;20.89;62.29;101371.91;5010166;28;20121;-65
2023/06/10 04:42:51;;;;;;;12.15;7.35;;;;;;;20.91;61.88;101372.41;5013050;28;20443;-66
2023/06/10 04:45:19;;;;;;;16.60;7.88;;;;;;;20.85;62.18;101380.88;5024932;28;20072;-65
2023/06/10 04:47:47;;;;;;;15.60;7.45;;;;;;;20.85;62.19;101371.75;5003454;28;20053;-65
2023/06/10 04:50:15;;;;;;;13.20;7.90;;;;;;;20.81;62.67;101379.09;5014089;28;20132;-65
2023/06/10 04:52:44;;;;;;;11.20;7.03;;;;;;;20.77;62.82;101376.13;5014023;28;20081;-66
2023/06/10 04:55:13;;;;;;;15.20;7.32;;;;;;;20.77;63.04;101376.13;4997140;28;20406;-65
2023/06/10 04:57:41;;;;;;;13.43;7.88;;;;;;;20.82;62.86;101375.97;5031442;28;20448;-65
2023/06/10 05:00:09;;;;;;;11.15;7.43;;;;;;;20.87;62.60;101374.19;5024094;28;20117;-64
2023/06/10 05:02:37;;;;;;;12.43;6.82;;;;;;;20.90;62.60;101371.59;5020401;28;20105;-66
2023/06/10 05:05:06;;;;;;;12.02;7.57;;;;;;;20.94;62.29;101374.53;5003055;28;20080;-65
2023/06/10 05:07:34;;;;;;;11.38;5.60;;;;;;;20.93;62.41;101367.38;5019914;28;20052;-65
2023/06/10 05:10:02;;;;;;;13.10;7.05;;;;;;;20.91;62.49;101372.41;5030057;28;20080;-65
2023/06/10 05:12:30;;;;;;;13.93;7.63;;;;;;;20.89;62.16;101369.97;5021770;28;20410;-65
2023/06/10 05:14:58;;;;;;;11.55;7.47;;;;;;;20.86;62.50;101378.94;5027622;28;20417;-65
2023/06/10 05:17:26;;;;;;;12.07;7.65;;;;;;;20.76;63.18;101377.28;5038875;28;20072;-65
2023/06/10 05:19:54;;;;;;;14.48;7.10;;;;;;;20.70;63.37;101392.41;5023512;28;20125;-65
2023/06/10 05:22:23;;;;;;;10.93;6.35;;;;;;;20.72;63.49;101384.59;5030509;28;20125;-65
2023/06/10 05:24:52;;;;;;;15.20;8.23;;;;;;;20.78;63.49;101380.56;5040131;28;20046;-65
2023/06/10 05:27:21;;;;;;;13.63;8.10;;;;;;;20.77;63.42;101389.16;5040008;28;20106;-65
2023/06/10 05:29:48;;;;;;;13.20;7.80;;;;;;;20.74;63.77;101395.38;5037007;28;20076;-63
2023/06/10 05:32:16;;;;;;;20.08;8.15;;;;;;;20.76;63.53;101382.81;5038132;28;20490;-66
2023/06/10 05:34:44;;;;;;;12.73;7.55;;;;;;;20.79;63.13;101384.13;5040016;28;20251;-65
2023/06/10 05:37:12;;;;;;;11.45;7.03;;;;;;;20.84;62.85;101387.53;5035886;28;20540;-66
2023/06/10 05:39:40;;;;;;;12.00;6.75;;;;;;;20.87;62.78;101374.19;5027552;28;20036;-65
2023/06/10 05:42:08;;;;;;;15.75;7.80;;;;;;;20.84;63.35;101375.66;5034739;28;20140;-65
2023/06/10 05:44:40;;;;;;;15.00;6.82;;;;;;;20.85;62.91;101383.66;5039657;28;20513;-65
2023/06/10 05:47:07;;;;;;;10.95;6.60;;;;;;;20.91;63.05;101380.72;5038578;28;20084;-65
2023/06/10 05:49:35;;;;;;;15.48;6.88;;;;;;;20.94;62.69;101380.06;5035349;28;20054;-64
2023/06/10 05:52:03;;;;;;;12.93;6.93;;;;;;;20.97;62.84;101384.94;5020116;28;20069;-65
2023/06/10 05:54:31;;;;;;;14.77;7.10;;;;;;;20.96;63.02;101383.34;5020085;28;20125;-65
2023/06/10 05:56:59;;;;;;;14.35;7.97;;;;;;;20.95;63.01;101387.22;5018458;28;20042;-67
2023/06/10 05:59:27;;;;;;;14.77;7.43;;;;;;;20.97;63.33;101390.50;5034294;28;20558;-66
2023/06/10 06:01:55;;;;;;;14.98;7.47;;;;;;;20.95;63.18;101381.69;5055260;28;20041;-66
2023/06/10 06:04:22;;;;;;;10.73;6.40;;;;;;;20.97;62.94;101388.56;5039354;28;20076;-65
2023/06/10 06:06:50;;;;;;;13.73;7.07;;;;;;;20.99;62.36;101386.25;5039363;28;20053;-65
2023/06/10 06:09:18;;;;;;;9.93;7.00;;;;;;;21.04;62.70;101390.81;5023528;28;20074;-65
2023/06/10 06:11:45;;;;;;;17.02;8.35;;;;;;;21.04;62.55;101386.09;5027061;28;20077;-65
2023/06/10 06:14:13;;;;;;;15.25;7.38;;;;;;;21.06;62.49;101389.34;5035058;28;20076;-65
2023/06/10 06:16:41;;;;;;;16.50;7.28;;;;;;;21.11;62.04;101384.81;5034263;28;20482;-65
2023/06/10 06:19:11;;;;;;;17.33;7.38;;;;;;;21.11;62.15;101388.38;5015482;28;20077;-65
2023/06/10 06:21:38;;;;;;;14.73;7.13;;;;;;;21.16;62.85;101388.22;5022287;28;21047;-66
2023/06/10 06:24:06;;;;;;;17.55;7.20;;;;;;;21.19;61.45;101383.97;5037969;28;20125;-65
2023/06/10 06:26:34;;;;;;;16.75;7.55;;;;;;;21.23;61.76;101394.09;5022073;28;20425;-65
2023/06/10 06:29:02;;;;;;;12.45;7.43;;;;;;;21.23;61.87;101385.78;5022211;28;20516;-65
2023/06/10 06:31:30;;;;;;;14.50;7.13;;;;;;;21.25;61.80;101389.03;5025145;28;20049;-65
2023/06/10 06:33:58;;;;;;;17.10;7.72;;;;;;;21.30;62.26;101388.06;5058155;28;20045;-64
2023/06/10 06:36:26;;;;;;;11.40;6.85;;;;;;;21.36;61.48;101391.47;5033899;28;20041;-66
2023/06/10 06:38:53;;;;;;;13.13;6.90;;;;;;;21.36;61.75;101400.63;5025711;28;20072;-66
2023/06/10 06:41:23;;;;;;;12.80;7.20;;;;;;;21.42;61.64;101395.75;5037679;28;20513;-65
2023/06/10 06:43:50;;;;;;;15.38;6.93;;;;;;;21.49;61.32;101404.38;5034590;28;20053;-65
2023/06/10 06:46:25;;;;;;;17.83;7.78;;;;;;;21.55;61.20;101400.31;5036062;28;20050;-66
2023/06/10 06:48:52;;;;;;;18.35;8.15;;;;;;;21.62;61.14;101394.25;5033822;28;20051;-66
2023/06/10 06:51:20;;;;;;;18.48;8.50;;;;;;;21.68;60.88;101406.81;5051459;28;20080;-65
2023/06/10 06:53:50;;;;;;;19.52;8.25;;;;;;;21.72;60.27;101395.84;5038575;28;20107;-65
2023/06/10 06:56:17;;;;;;;13.57;6.85;;;;;;;21.73;59.43;101391.94;5038478;28;20057;-64
2023/06/10 06:58:45;;;;;;;24.48;8.88;;;;;;;21.75;59.07;101398.78;5019116;28;20128;-67
2023/06/10 07:01:13;;;;;;;17.27;7.82;;;;;;;21.77;58.70;101398.44;5015799;28;20049;-66
2023/06/10 07:03:41;;;;;;;18.45;8.13;;;;;;;21.79;58.18;101393.38;5016995;28;20056;-65
2023/06/10 07:06:08;;;;;;;25.85;9.30;;;;;;;21.82;57.83;101403.84;5021084;28;20050;-65
2023/06/10 07:08:37;;;;;;;15.52;7.07;;;;;;;21.83;57.71;101405.47;5037777;28;20053;-64
2023/06/10 07:11:04;;;;;;;16.42;7.20;;;;;;;21.85;58.37;101403.16;5040923;28;20413;-64
2023/06/10 07:13:32;;;;;;;13.43;7.15;;;;;;;21.88;58.63;101403.31;5051963;28;20049;-64
2023/06/10 07:16:01;;;;;;;13.05;6.80;;;;;;;21.90;58.11;101411.31;5049898;28;20053;-64
2023/06/10 07:18:28;;;;;;;15.02;7.55;;;;;;;21.93;58.08;101407.88;5050389;28;20060;-62
2023/06/10 07:20:56;;;;;;;14.77;6.72;;;;;;;21.96;56.85;101411.94;5049910;28;20045;-63
2023/06/10 07:23:24;;;;;;;11.93;6.40;;;;;;;21.99;57.35;101412.13;5046227;28;20121;-65
2023/06/10 07:25:51;;;;;;;12.15;6.68;;;;;;;22.00;56.24;101415.69;5038727;28;20120;-65
2023/06/10 07:28:19;;;;;;;13.75;6.65;;;;;;;22.01;57.07;101414.56;5040938;28;20393;-63
2023/06/10 07:30:47;;;;;;;18.35;7.90;;;;;;;22.03;57.88;101413.09;5034168;28;20084;-63
2023/06/10 07:33:14;;;;;;;13.23;6.50;;;;;;;22.06;57.35;101415.19;5034904;28;20055;-65
2023/06/10 07:35:43;;;;;;;14.82;6.25;;;;;;;22.09;57.60;101408.97;5035490;28;20103;-64
2023/06/10 07:38:10;;;;;;;11.70;5.88;;;;;;;22.13;57.77;101421.03;5033532;28;20049;-65
2023/06/10 07:40:38;;;;;;;11.30;6.55;;;;;;;22.19;57.60;101418.09;5005133;28;20049;-64
2023/06/10 07:43:06;;;;;;;12.77;6.57;;;;;;;22.25;58.01;101425.13;5032460;28;20084;-65
2023/06/10 07:45:33;;;;;;;13.35;5.78;;;;;;;22.29;57.66;101428.84;5032138;28;20123;-64
2023/06/10 07:48:01;;;;;;;12.93;5.68;;;;;;;22.34;57.53;101420.31;5004980;28;20124;-65
2023/06/10 07:50:29;;;;;;;13.05;5.60;;;;;;;22.38;57.36;101414.94;5014783;28;20194;-65
2023/06/10 07:52:57;;;;;;;10.88;5.43;;;;;;;22.41;57.54;101417.84;5015299;28;20405;-65
2023/06/10 07:55:25;;;;;;;13.90;6.30;;;;;;;22.47;56.45;101424.03;5028654;28;20049;-65
2023/06/10 07:57:54;;;;;;;10.75;6.03;;;;;;;22.50;56.48;101417.81;5016463;28;20140;-65
2023/06/10 08:00:22;;;;;;;11.38;5.88;;;;;;;22.54;56.76;101413.22;5032411;28;20041;-67
2023/06/10 08:02:50;;;;;;;12.25;5.97;;;;;;;22.60;55.82;101422.97;5033372;28;20051;-65
2023/06/10 08:05:18;;;;;;;10.65;6.05;;;;;;;22.68;54.76;101419.34;5023409;28;20053;-64
2023/06/10 08:07:46;;;;;;;9.82;5.18;;;;;;;22.71;54.72;101420.63;5015199;28;20107;-66
2023/06/10 08:10:14;;;;;;;10.38;5.75;;;;;;;22.76;55.18;101414.88;5013550;28;20486;-64
2023/06/10 08:12:41;;;;;;;12.25;5.95;;;;;;;22.82;55.14;101418.28;5030496;28;20060;-65
2023/06/10 08:15:10;;;;;;;9.63;5.38;;;;;;;22.90;55.11;101421.00;5014741;28;20104;-65
2023/06/10 08:17:39;;;;;;;12.00;6.10;;;;;;;22.97;53.78;101415.72;5010257;28;20083;-64
2023/06/10 08:20:07;;;;;;;11.40;5.65;;;;;;;23.00;53.36;101416.25;5034502;28;20083;-65
2023/06/10 08:22:35;;;;;;;10.10;5.95;;;;;;;23.03;53.36;101423.88;5034435;28;20394;-63
2023/06/10 08:25:03;;;;;;;9.10;5.57;;;;;;;23.03;53.20;101421.13;5027601;28;20046;-66
2023/06/10 08:27:31;;;;;;;11.02;5.75;;;;;;;23.06;53.85;101423.22;5033438;28;20485;-66
2023/06/10 08:30:00;;;;;;;10.93;5.80;;;;;;;23.10;53.51;101419.41;5017083;28;20049;-63
2023/06/10 08:32:29;;;;;;;11.68;5.93;;;;;;;23.14;52.19;101419.56;5033924;28;20049;-66
2023/06/10 08:34:57;;;;;;;9.32;5.65;;;;;;;23.21;52.86;101419.00;5030136;28;20050;-66
2023/06/10 08:37:25;;;;;;;9.35;5.38;;;;;;;23.25;52.30;101417.19;5028722;28;20048;-65
2023/06/10 08:39:53;;;;;;;10.13;6.22;;;;;;;23.27;51.90;101409.31;5047648;28;20069;-65
2023/06/10 08:42:25;;;;;;;11.45;5.05;;;;;;;23.32;52.94;101415.47;5033290;28;20057;-66
2023/06/10 08:44:56;;;;;;;10.10;5.38;;;;;;;23.39;53.62;101417.72;5032088;28;20045;-65
2023/06/10 08:47:25;;;;;;;12.63;5.70;;;;;;;23.45;53.40;101418.31;5017150;28;20592;-65
2023/06/10 08:49:55;;;;;;;12.88;5.75;;;;;;;23.51;52.16;101411.38;5012850;28;20042;-65
2023/06/10 08:52:25;;;;;;;12.20;5.80;;;;;;;23.52;51.73;101416.63;4997365;28;20054;-65
2023/06/10 08:55:05;;;;;;;12.98;5.50;;;;;;;23.56;52.06;101419.50;5021028;28;20041;-65
2023/06/10 08:57:33;;;;;;;12.48;6.22;;;;;;;23.58;52.92;101415.22;5029806;28;20062;-66
2023/06/10 09:00:02;;;;;;;10.48;6.15;;;;;;;23.65;52.56;101420.25;5032200;28;20120;-66
2023/06/10 09:02:32;;;;;;;11.32;6.10;;;;;;;23.72;52.54;101422.47;5032610;28;20053;-65
2023/06/10 09:05:00;;;;;;;11.50;5.57;;;;;;;23.75;52.52;101421.81;5032154;28;20046;-64
2023/06/10 09:07:31;;;;;;;10.40;5.78;;;;;;;23.76;52.35;101418.69;5003885;28;20129;-66
2023/06/10 09:09:59;;;;;;;12.05;5.43;;;;;;;23.80;52.43;101422.41;5020870;28;20050;-65
2023/06/10 09:12:27;;;;;;;9.68;5.55;;;;;;;23.86;51.25;101416.63;4989291;28;20056;-65
2023/06/10 09:14:55;;;;;;;12.65;5.88;;;;;;;23.86;50.66;101417.44;5032136;28;20069;-65
2023/06/10 09:17:24;;;;;;;10.25;5.78;;;;;;;23.89;50.31;101410.38;5008179;28;20100;-66
2023/06/10 09:19:55;;;;;;;11.50;5.53;;;;;;;23.92;50.84;101409.69;5030172;28;20053;-65
2023/06/10 09:22:23;;;;;;;12.50;5.95;;;;;;;23.97;50.93;101412.25;5018591;28;20050;-65
2023/06/10 09:24:51;;;;;;;12.50;6.05;;;;;;;24.03;50.59;101410.88;5049405;28;20050;-67
2023/06/10 09:27:19;;;;;;;9.32;5.50;;;;;;;24.06;49.37;101406.59;5032482;28;20079;-67
2023/06/10 09:29:51;;;;;;;9.82;5.32;;;;;;;24.02;49.12;101403.66;5031798;28;20065;-66
2023/06/10 09:32:20;;;;;;;11.32;5.93;;;;;;;24.10;49.69;101399.97;5031394;28;20056;-65
2023/06/10 09:34:49;;;;;;;11.95;6.28;;;;;;;24.17;49.13;101403.00;5030157;28;20061;-66
2023/06/10 09:37:23;;;;;;;12.80;5.85;;;;;;;24.32;48.49;101400.69;5014787;28;20045;-65
2023/06/10 09:40:05;;;;;;;11.73;5.53;;;;;;;24.41;47.99;101404.16;5029853;28;20068;-66
2023/06/10 09:42:35;;;;;;;13.93;6.63;;;;;;;24.56;47.50;101403.50;5035142;28;20059;-65
2023/06/10 09:45:07;;;;;;;11.23;5.53;;;;;;;24.74;46.92;101411.59;5057909;28;20049;-67
2023/06/10 09:47:35;;;;;;;11.40;6.32;;;;;;;24.79;46.65;101403.81;5039661;28;20049;-66
2023/06/10 09:50:03;;;;;;;9.75;5.60;;;;;;;24.72;47.03;101395.22;5041429;28;20103;-67
2023/06/10 09:52:31;;;;;;;8.98;5.65;;;;;;;24.70;46.92;101403.13;5042859;28;20114;-66
2023/06/10 09:55:01;;;;;;;16.33;6.25;;;;;;;24.74;46.86;101401.25;5042921;28;20053;-67
2023/06/10 09:57:33;;;;;;;14.35;6.32;;;;;;;24.80;46.49;101399.06;5021346;28;20046;-66
2023/06/10 10:00:06;;;;;;;11.23;6.03;;;;;;;24.91;45.52;101400.19;5034476;28;20458;-66
2023/06/10 10:02:47;;;;;;;9.63;5.80;;;;;;;24.87;45.89;101402.06;5036818;28;20060;-67
2023/06/10 10:05:17;;;;;;;12.00;6.40;;;;;;;24.99;47.29;101396.47;5031597;28;20141;-66
2023/06/10 10:07:45;;;;;;;13.63;6.05;;;;;;;24.98;48.21;101394.81;5000616;28;20058;-70
2023/06/10 10:10:14;;;;;;;13.23;6.18;;;;;;;24.99;48.22;101385.31;4989952;28;20041;-67
2023/06/10 10:12:43;;;;;;;12.15;6.05;;;;;;;25.11;49.05;101394.78;5034830;28;20120;-66
2023/06/10 10:15:12;;;;;;;13.27;6.10;;;;;;;25.16;48.71;101388.94;5036251;28;20504;-65
2023/06/10 10:17:52;;;;;;;11.98;6.07;;;;;;;25.22;48.74;101384.78;5036859;28;20102;-67
2023/06/10 10:20:25;;;;;;;12.25;5.68;;;;;;;25.28;48.59;101392.56;5025691;28;20045;-65
2023/06/10 10:22:55;;;;;;;17.42;6.75;;;;;;;25.27;48.13;101385.34;5015995;28;20069;-67
2023/06/10 10:25:42;;;;;;;11.15;6.30;;;;;;;25.34;47.62;101381.94;5019850;28;20091;-66
2023/06/10 10:28:11;;;;;;;15.65;6.28;;;;;;;25.39;47.06;101387.28;5003298;28;20050;-66
2023/06/10 10:30:51;;;;;;;12.55;5.82;;;;;;;25.51;45.67;101384.41;5022991;28;20065;-66
2023/06/10 10:33:33;;;;;;;10.80;6.07;;;;;;;25.56;45.37;101382.53;5035290;28;20045;-67
2023/06/10 10:36:01;;;;;;;10.90;5.57;;;;;;;25.61;46.05;101383.09;5002983;28;20084;-67
2023/06/10 10:38:29;;;;;;;12.45;6.40;;;;;;;25.62;46.16;101390.31;5035366;28;20046;-66
2023/06/10 10:40:59;;;;;;;10.43;5.70;;;;;;;25.71;45.25;101381.75;4352304;28;10021549;-67
2023/06/10 10:43:28;;;;;;;11.48;6.28;;;;;;;25.71;44.92;101374.22;5045702;28;20057;-66
2023/06/10 10:46:08;;;;;;;11.30;6.15;;;;;;;25.77;43.91;101380.34;5032746;28;20046;-67
2023/06/10 10:48:38;;;;;;;11.80;6.10;;;;;;;25.81;44.20;101375.66;5031896;28;20084;-67
2023/06/10 10:51:06;;;;;;;11.95;6.20;;;;;;;25.90;43.91;101379.13;5031698;28;20083;-66
2023/06/10 10:53:34;;;;;;;12.35;6.45;;;;;;;25.90;43.99;101379.13;5034488;28;20050;-66
2023/06/10 10:56:05;;;;;;;12.68;5.70;;;;;;;25.89;44.62;101366.31;5007411;28;20046;-66
2023/06/10 10:58:32;;;;;;;11.48;5.90;;;;;;;25.89;44.44;101371.09;5015024;28;20061;-66
2023/06/10 11:01:11;;;;;;;12.10;5.70;;;;;;;25.91;41.89;101375.16;5031238;28;20095;-66
2023/06/10 11:03:46;;;;;;;10.70;6.32;;;;;;;25.91;42.64;101371.56;5032416;28;20049;-65
2023/06/10 11:06:16;;;;;;;14.27;5.90;;;;;;;26.00;40.46;101365.78;5014252;28;20046;-67
2023/06/10 11:08:47;;;;;;;12.85;6.13;;;;;;;26.00;41.07;101363.00;5032094;28;20103;-66
2023/06/10 11:11:28;;;;;;;10.57;6.15;;;;;;;26.03;41.61;101360.28;5014152;28;20056;-66
2023/06/10 11:14:04;;;;;;;10.45;5.97;;;;;;;26.08;41.62;101356.44;5034279;28;20199;-67
2023/06/10 11:16:40;;;;;;;10.68;6.35;;;;;;;26.10;41.67;101354.09;5039378;28;20037;-64
2023/06/10 11:19:08;;;;;;;10.30;5.40;;;;;;;26.09;41.79;101349.66;5040947;28;20149;-65
2023/06/10 11:22:01;;;;;;;12.20;5.50;;;;;;;26.28;41.55;101352.53;5042330;28;20049;-65
2023/06/10 11:24:30;;;;;;;12.07;5.97;;;;;;;26.25;42.32;101349.66;5034666;28;20404;-64
2023/06/10 11:27:17;;;;;;;9.23;5.65;;;;;;;26.17;42.17;101351.47;5049897;28;20057;-64
2023/06/10 11:30:03;;;;;;;12.70;6.47;;;;;;;26.20;40.85;101347.94;5048128;28;20060;-62